Time;durP1;ratioP1;P1;durP2;ratioP2;P2;SDS_P1;SDS_P2;PMS_P1;PMS_P2;Temp;Humidity;BMP_temperature;BMP_pressure;BME280_temperature;BME280_humidity;BME280_pressure;Samples;Min_cycle;Max_cycle;Signal;HPM_P1;HPM_P2
2024/01/28 00:00:34;;;;;;;18.67;11.38;;;;;;;4.28;66.88;103207.72;5008006;28;20034;-59
2024/01/28 00:03:00;;;;;;;16.33;11.35;;;;;;;4.28;66.65;103207.72;5006914;28;20026;-59
2024/01/28 00:05:25;;;;;;;19.95;11.55;;;;;;;4.25;66.88;103208.91;5002592;28;20037;-59
2024/01/28 00:07:50;;;;;;;15.57;10.95;;;;;;;4.26;67.01;103207.03;4998634;28;20086;-59
2024/01/28 00:10:16;;;;;;;19.42;11.90;;;;;;;4.25;66.97;103192.44;5004193;28;20501;-59
2024/01/28 00:12:41;;;;;;;21.48;11.77;;;;;;;4.26;67.02;103185.91;4991337;28;20041;-60
2024/01/28 00:15:07;;;;;;;19.70;11.45;;;;;;;4.25;67.17;103189.69;5013438;28;20036;-58
2024/01/28 00:17:32;;;;;;;19.08;10.85;;;;;;;4.28;67.18;103188.47;5016501;28;20447;-58
2024/01/28 00:19:57;;;;;;;17.33;10.68;;;;;;;4.30;67.29;103180.97;5019287;28;20030;-58
2024/01/28 00:22:23;;;;;;;19.77;11.68;;;;;;;4.31;67.10;103183.53;5011261;28;20033;-60
2024/01/28 00:24:49;;;;;;;20.10;11.02;;;;;;;4.35;67.30;103176.72;5010113;28;20126;-59
2024/01/28 00:27:14;;;;;;;18.88;11.43;;;;;;;4.34;66.82;103169.50;5012727;28;20094;-59
2024/01/28 00:29:39;;;;;;;21.88;12.27;;;;;;;4.37;67.17;103171.06;5056701;28;20026;-59
2024/01/28 00:32:05;;;;;;;17.20;10.60;;;;;;;4.33;66.88;103165.03;5017508;28;20484;-59
2024/01/28 00:34:30;;;;;;;17.65;10.80;;;;;;;4.32;66.44;103162.41;5095837;28;20032;-59
2024/01/28 00:36:56;;;;;;;21.42;12.73;;;;;;;4.27;66.38;103181.25;5015139;28;20121;-59
2024/01/28 00:39:21;;;;;;;18.23;10.80;;;;;;;4.27;66.42;103176.63;5014106;28;20489;-59
2024/01/28 00:41:46;;;;;;;20.17;12.02;;;;;;;4.25;66.76;103177.81;5017074;28;20034;-59
2024/01/28 00:44:11;;;;;;;20.63;11.73;;;;;;;4.20;66.81;103167.25;5023398;28;20038;-59
2024/01/28 00:46:37;;;;;;;19.42;11.75;;;;;;;4.14;66.54;103159.66;5010221;28;20053;-59
2024/01/28 00:49:03;;;;;;;18.95;10.80;;;;;;;4.15;66.78;103161.38;5044152;28;20075;-59
2024/01/28 00:51:29;;;;;;;18.55;10.68;;;;;;;4.16;66.42;103155.72;5069679;28;20113;-59
2024/01/28 00:53:55;;;;;;;22.42;11.40;;;;;;;4.10;66.54;103153.59;5008862;28;20033;-59
2024/01/28 00:56:20;;;;;;;20.65;11.43;;;;;;;4.08;66.81;103146.50;5009842;28;20041;-59
2024/01/28 00:58:45;;;;;;;20.08;11.43;;;;;;;4.08;66.70;103147.38;5010058;28;20038;-59
2024/01/28 01:01:11;;;;;;;21.17;11.88;;;;;;;4.09;66.56;103149.13;5008811;28;20026;-60
2024/01/28 01:03:36;;;;;;;20.35;10.85;;;;;;;4.07;66.54;103140.16;5009683;28;20026;-59
2024/01/28 01:06:02;;;;;;;17.38;11.18;;;;;;;4.06;66.70;103134.81;5009777;28;20105;-60
2024/01/28 01:08:27;;;;;;;18.50;11.40;;;;;;;4.05;66.75;103133.97;5067526;28;20059;-59
2024/01/28 01:10:53;;;;;;;19.10;10.43;;;;;;;4.01;66.49;103132.53;4999260;28;20058;-60
2024/01/28 01:13:19;;;;;;;14.65;10.90;;;;;;;3.98;66.98;103132.84;4990178;28;20038;-59
2024/01/28 01:15:45;;;;;;;15.75;10.43;;;;;;;3.98;66.77;103130.09;4995109;28;20026;-60
2024/01/28 01:18:10;;;;;;;15.75;10.65;;;;;;;3.95;66.63;103130.41;5009836;28;20102;-60
2024/01/28 01:20:36;;;;;;;19.30;11.52;;;;;;;3.96;66.47;103134.88;5008842;28;20057;-60
2024/01/28 01:23:01;;;;;;;20.85;10.95;;;;;;;3.93;66.53;103132.44;5009245;28;20022;-60
2024/01/28 01:25:26;;;;;;;17.15;10.85;;;;;;;3.91;66.77;103128.97;5022812;28;20026;-60
2024/01/28 01:27:55;;;;;;;20.98;11.73;;;;;;;3.89;66.91;103129.16;5028124;28;20053;-60
2024/01/28 01:30:20;;;;;;;15.45;10.38;;;;;;;3.87;66.90;103122.91;5013839;28;20045;-60
2024/01/28 01:32:45;;;;;;;17.50;11.10;;;;;;;3.88;66.75;103126.53;5009177;28;20077;-60
2024/01/28 01:35:11;;;;;;;18.85;11.38;;;;;;;3.87;66.64;103119.31;5008781;28;20072;-60
2024/01/28 01:37:37;;;;;;;16.10;11.00;;;;;;;3.86;66.64;103128.56;5008635;28;20105;-59
2024/01/28 01:40:06;;;;;;;17.25;10.75;;;;;;;3.82;66.68;103121.66;5009170;28;20128;-60
2024/01/28 01:42:32;;;;;;;19.63;12.60;;;;;;;3.79;66.68;103127.47;5008951;28;20018;-60
2024/01/28 01:44:57;;;;;;;16.42;11.23;;;;;;;3.78;66.22;103126.59;5008849;28;20441;-60
2024/01/28 01:47:24;;;;;;;19.73;11.88;;;;;;;3.74;66.38;103127.91;5008818;28;20046;-60
2024/01/28 01:49:49;;;;;;;22.08;12.18;;;;;;;3.71;66.18;103121.88;5008744;28;20030;-60
2024/01/28 01:52:16;;;;;;;18.88;11.52;;;;;;;3.67;66.34;103132.28;5009475;28;20030;-60
2024/01/28 01:54:47;;;;;;;20.45;11.55;;;;;;;3.62;66.41;103127.25;5009369;28;20030;-60
2024/01/28 01:57:13;;;;;;;16.02;11.70;;;;;;;3.60;65.96;103129.28;5007819;28;20114;-60
2024/01/28 01:59:40;;;;;;;17.27;11.52;;;;;;;3.58;66.40;103131.31;5007711;28;20469;-60
2024/01/28 02:02:09;;;;;;;17.48;11.35;;;;;;;3.52;66.02;103131.91;5017014;28;20045;-60
2024/01/28 02:04:35;;;;;;;19.88;11.25;;;;;;;3.52;66.01;103125.56;4992830;28;20479;-60
2024/01/28 02:07:01;;;;;;;19.23;11.32;;;;;;;3.48;66.14;103125.00;5008519;28;20022;-60
2024/01/28 02:09:27;;;;;;;16.45;10.88;;;;;;;3.47;65.81;103122.41;5009027;28;20037;-60
2024/01/28 02:11:52;;;;;;;16.98;10.93;;;;;;;3.46;66.36;103121.53;5007928;28;20053;-60
2024/01/28 02:14:27;;;;;;;18.88;11.35;;;;;;;3.45;66.63;103122.53;5008591;28;20111;-60
2024/01/28 02:16:52;;;;;;;17.92;10.90;;;;;;;3.43;66.29;103119.97;5007989;28;20030;-60
2024/01/28 02:19:17;;;;;;;17.70;11.00;;;;;;;3.41;65.96;103119.22;5006212;28;20394;-59
2024/01/28 02:21:43;;;;;;;16.92;11.85;;;;;;;3.41;66.51;103116.47;5005739;28;20108;-60
2024/01/28 02:24:08;;;;;;;19.45;11.32;;;;;;;3.41;66.41;103107.38;5008338;28;20366;-60
2024/01/28 02:26:34;;;;;;;18.33;10.75;;;;;;;3.40;67.07;103097.44;5008544;28;20029;-60
2024/01/28 02:28:59;;;;;;;17.73;10.77;;;;;;;3.40;67.08;103094.69;5008328;28;20026;-60
2024/01/28 02:31:24;;;;;;;15.60;10.95;;;;;;;3.38;66.59;103088.47;5007398;28;20482;-60
2024/01/28 02:33:50;;;;;;;15.70;10.75;;;;;;;3.39;66.47;103090.22;5008526;28;20038;-60
2024/01/28 02:36:15;;;;;;;20.17;10.60;;;;;;;3.35;66.83;103083.31;5008080;28;20025;-60
2024/01/28 02:38:40;;;;;;;15.30;11.02;;;;;;;3.34;66.26;103079.69;5004867;28;20034;-60
2024/01/28 02:41:06;;;;;;;14.68;10.57;;;;;;;3.34;66.11;103073.31;4998271;28;20402;-60
2024/01/28 02:43:31;;;;;;;18.23;9.98;;;;;;;3.33;66.18;103066.09;4988652;28;20034;-60
2024/01/28 02:45:56;;;;;;;14.15;10.85;;;;;;;3.30;66.24;103070.03;4997787;28;20057;-59
2024/01/28 02:48:22;;;;;;;14.57;10.70;;;;;;;3.29;65.67;103067.41;5007498;28;20132;-59
2024/01/28 02:50:47;;;;;;;16.40;10.30;;;;;;;3.27;66.34;103072.22;5007902;28;20030;-59
2024/01/28 02:53:12;;;;;;;13.70;9.85;;;;;;;3.26;65.66;103070.47;5007588;28;20022;-60
2024/01/28 02:55:38;;;;;;;19.90;10.55;;;;;;;3.23;65.78;103070.78;5005088;28;20042;-58
2024/01/28 02:58:03;;;;;;;15.88;10.70;;;;;;;3.20;65.91;103066.44;4997284;28;20425;-60
2024/01/28 03:00:29;;;;;;;15.27;10.07;;;;;;;3.20;66.08;103060.97;5004029;28;20461;-60
2024/01/28 03:02:54;;;;;;;12.30;9.45;;;;;;;3.18;65.68;103057.50;5007929;28;20445;-59
2024/01/28 03:05:20;;;;;;;13.63;9.65;;;;;;;3.14;65.79;103072.53;5007847;28;20121;-60
2024/01/28 03:07:45;;;;;;;17.42;10.43;;;;;;;3.11;65.59;103068.22;5007643;28;20113;-60
2024/01/28 03:10:10;;;;;;;14.25;9.73;;;;;;;3.11;66.20;103068.22;5010082;28;20037;-60
2024/01/28 03:12:36;;;;;;;14.93;9.93;;;;;;;3.08;66.38;103060.28;5011454;28;20381;-60
2024/01/28 03:15:02;;;;;;;16.83;10.30;;;;;;;3.04;66.04;103055.25;5004206;28;20034;-59
2024/01/28 03:17:28;;;;;;;15.32;9.77;;;;;;;3.04;66.21;103050.63;5017535;28;20029;-60
2024/01/28 03:19:53;;;;;;;17.92;10.20;;;;;;;3.03;65.92;103037.94;5034525;28;20026;-60
2024/01/28 03:22:18;;;;;;;14.43;9.38;;;;;;;3.05;65.73;103043.25;4990923;28;20038;-60
2024/01/28 03:24:44;;;;;;;14.95;9.18;;;;;;;3.05;65.98;103038.63;4991761;28;20026;-60
2024/01/28 03:27:09;;;;;;;19.00;10.02;;;;;;;3.03;65.78;103037.94;4999841;28;20416;-60
2024/01/28 03:29:34;;;;;;;14.73;10.30;;;;;;;2.98;65.35;103040.22;5010501;28;20108;-60
2024/01/28 03:31:59;;;;;;;17.67;9.70;;;;;;;3.00;65.92;103037.34;5010373;28;20040;-59
2024/01/28 03:34:25;;;;;;;15.48;9.80;;;;;;;2.98;65.82;103034.75;5010251;28;20519;-60
2024/01/28 03:36:50;;;;;;;16.45;10.23;;;;;;;2.99;65.77;103044.72;5007340;28;20045;-60
2024/01/28 03:39:15;;;;;;;16.13;9.60;;;;;;;2.95;65.40;103040.56;5011533;28;20057;-60
2024/01/28 03:41:41;;;;;;;15.25;9.60;;;;;;;2.97;65.42;103041.25;5009976;28;20389;-60
2024/01/28 03:44:07;;;;;;;14.93;9.85;;;;;;;2.94;65.87;103038.81;5011040;28;20477;-59
2024/01/28 03:46:34;;;;;;;12.95;9.57;;;;;;;2.91;65.47;103034.50;5010552;28;20397;-60
2024/01/28 03:49:00;;;;;;;13.82;9.52;;;;;;;2.92;66.12;103040.84;5009718;28;20106;-60
2024/01/28 03:51:26;;;;;;;16.02;9.60;;;;;;;2.92;66.14;103043.59;5010502;28;20048;-59
2024/01/28 03:53:51;;;;;;;16.35;9.50;;;;;;;2.90;65.80;103032.75;5004599;28;20112;-60
2024/01/28 03:56:17;;;;;;;21.55;10.23;;;;;;;2.92;66.93;103032.63;5010212;28;20479;-60
2024/01/28 03:58:42;;;;;;;16.30;9.35;;;;;;;2.96;67.21;103023.06;5010377;28;20034;-60
2024/01/28 04:01:08;;;;;;;18.10;9.65;;;;;;;3.00;67.19;103027.25;5011053;28;20025;-60
2024/01/28 04:03:33;;;;;;;16.63;9.77;;;;;;;3.02;67.27;103030.69;5010149;28;20048;-60
2024/01/28 04:05:58;;;;;;;15.55;8.80;;;;;;;3.01;67.44;103028.97;5009856;28;20120;-60
2024/01/28 04:08:24;;;;;;;16.23;8.75;;;;;;;3.03;67.37;103035.19;5010976;28;20030;-60
2024/01/28 04:10:49;;;;;;;16.40;8.38;;;;;;;3.01;67.53;103034.44;5006672;28;20385;-60
2024/01/28 04:13:14;;;;;;;19.88;8.73;;;;;;;3.05;66.77;103037.75;5002922;28;20789;-60
2024/01/28 04:15:40;;;;;;;15.52;8.18;;;;;;;3.04;66.92;103036.03;5010671;28;20025;-59
2024/01/28 04:18:05;;;;;;;17.20;8.80;;;;;;;3.04;67.27;103027.81;5009706;28;20025;-60
2024/01/28 04:20:31;;;;;;;15.90;8.30;;;;;;;3.07;66.84;103030.25;5009774;28;20383;-60
2024/01/28 04:22:56;;;;;;;16.02;7.93;;;;;;;3.08;67.12;103026.50;5010426;28;20038;-60
2024/01/28 04:25:21;;;;;;;15.68;7.82;;;;;;;3.11;67.21;103020.72;5009105;28;20040;-60
2024/01/28 04:27:46;;;;;;;14.80;8.18;;;;;;;3.09;66.60;103009.88;5010365;28;20018;-59
2024/01/28 04:30:12;;;;;;;13.75;8.48;;;;;;;3.07;67.35;103014.66;5005956;28;20120;-60
2024/01/28 04:32:37;;;;;;;16.15;8.35;;;;;;;3.07;67.12;103003.69;5009264;28;20014;-60
2024/01/28 04:35:03;;;;;;;12.32;7.55;;;;;;;3.10;67.59;103000.63;5009916;28;20105;-59
2024/01/28 04:37:29;;;;;;;14.52;8.38;;;;;;;3.10;67.49;103000.63;5009400;28;20495;-60
2024/01/28 04:39:55;;;;;;;11.65;8.43;;;;;;;3.12;67.42;103004.09;5006482;28;20025;-59
2024/01/28 04:42:22;;;;;;;15.85;8.40;;;;;;;3.15;67.54;102995.56;5010021;28;20034;-60
2024/01/28 04:44:50;;;;;;;15.85;7.90;;;;;;;3.12;67.71;102995.00;5009234;28;20042;-60
2024/01/28 04:47:15;;;;;;;15.52;7.97;;;;;;;3.12;67.23;102990.38;5009983;28;20065;-60
2024/01/28 04:49:41;;;;;;;12.82;7.97;;;;;;;3.11;67.77;102990.53;5009774;28;20038;-59
2024/01/28 04:52:06;;;;;;;15.95;7.93;;;;;;;3.13;67.10;102992.09;5009164;28;20075;-60
2024/01/28 04:54:32;;;;;;;16.75;7.60;;;;;;;3.08;67.52;102983.47;5010680;28;20061;-59
2024/01/28 04:57:01;;;;;;;16.42;8.20;;;;;;;3.11;67.38;102985.03;5026096;28;20039;-60
2024/01/28 04:59:26;;;;;;;16.77;7.78;;;;;;;3.10;67.10;102984.16;5008486;28;20385;-60
2024/01/28 05:01:51;;;;;;;13.63;8.35;;;;;;;3.08;67.35;102979.84;5008748;28;20030;-60
2024/01/28 05:04:17;;;;;;;14.98;8.10;;;;;;;3.07;67.27;102989.09;5009993;28;20029;-60
2024/01/28 05:06:42;;;;;;;14.27;7.85;;;;;;;3.05;67.25;102982.91;5009028;28;20396;-60
2024/01/28 05:09:09;;;;;;;12.02;7.38;;;;;;;3.04;67.09;102984.78;5008985;28;20053;-60
2024/01/28 05:11:35;;;;;;;14.10;7.38;;;;;;;3.05;67.31;102986.50;5009114;28;20034;-60
2024/01/28 05:14:00;;;;;;;13.00;8.15;;;;;;;3.04;67.57;102990.25;4998750;28;20450;-59
2024/01/28 05:16:26;;;;;;;14.38;7.95;;;;;;;3.05;67.44;102985.63;4994602;28;20091;-59
2024/01/28 05:18:51;;;;;;;12.65;7.95;;;;;;;3.04;67.49;102979.28;4989710;28;20113;-60
2024/01/28 05:21:18;;;;;;;14.68;7.93;;;;;;;3.02;67.18;102984.03;4988868;28;20046;-60
2024/01/28 05:23:44;;;;;;;13.82;8.15;;;;;;;3.03;67.23;102982.19;4989575;28;20114;-60
2024/01/28 05:26:09;;;;;;;12.50;7.38;;;;;;;3.03;67.16;102973.97;5006599;28;20120;-61
2024/01/28 05:28:34;;;;;;;12.25;7.88;;;;;;;3.05;67.06;102963.69;5008679;28;20036;-60
2024/01/28 05:31:00;;;;;;;14.77;8.13;;;;;;;3.05;67.34;102967.28;5005541;28;20023;-59
2024/01/28 05:33:25;;;;;;;11.85;7.60;;;;;;;3.06;67.41;102966.25;5003354;28;20362;-59
2024/01/28 05:35:50;;;;;;;14.52;8.13;;;;;;;3.07;67.24;102968.03;5008547;28;20079;-59
2024/01/28 05:38:16;;;;;;;14.43;7.68;;;;;;;3.06;67.25;102954.44;5008177;28;20037;-59
2024/01/28 05:40:41;;;;;;;16.23;7.65;;;;;;;3.05;66.82;102939.84;5008572;28;20034;-59
2024/01/28 05:43:07;;;;;;;13.63;7.90;;;;;;;3.03;67.19;102933.69;5009048;28;20121;-59
2024/01/28 05:45:32;;;;;;;13.88;7.60;;;;;;;3.05;66.89;102947.22;5009039;28;20137;-59
2024/01/28 05:48:01;;;;;;;16.08;8.13;;;;;;;3.04;67.17;102938.13;5008433;28;20033;-59
2024/01/28 05:50:28;;;;;;;15.32;7.57;;;;;;;3.04;67.27;102934.53;5002490;28;20178;-59
2024/01/28 05:52:53;;;;;;;13.88;7.32;;;;;;;3.05;67.17;102939.84;5008824;28;20057;-59
2024/01/28 05:55:18;;;;;;;13.15;7.45;;;;;;;3.07;66.80;102937.84;5007703;28;20469;-60
2024/01/28 05:57:44;;;;;;;15.32;7.32;;;;;;;3.06;67.00;102932.47;5008687;28;20022;-59
2024/01/28 06:00:10;;;;;;;11.52;7.30;;;;;;;3.04;67.29;102924.41;5008562;28;20105;-59
2024/01/28 06:02:36;;;;;;;13.15;7.63;;;;;;;3.04;66.69;102929.03;5007800;28;20036;-59
2024/01/28 06:05:01;;;;;;;10.90;6.78;;;;;;;3.02;66.73;102917.34;5008816;28;20026;-59
2024/01/28 06:07:26;;;;;;;13.98;6.68;;;;;;;3.00;67.37;102909.28;5018501;28;20026;-59
2024/01/28 06:09:52;;;;;;;14.13;6.97;;;;;;;2.98;66.69;102915.91;5027900;28;20029;-59
2024/01/28 06:12:18;;;;;;;10.18;6.72;;;;;;;2.98;66.87;102910.44;5008289;28;20040;-59
2024/01/28 06:14:43;;;;;;;13.95;6.72;;;;;;;3.00;66.64;102906.53;5008574;28;20487;-59
2024/01/28 06:17:09;;;;;;;15.13;7.40;;;;;;;2.99;66.54;102909.41;5008250;28;20025;-59
2024/01/28 06:19:34;;;;;;;12.18;7.28;;;;;;;2.97;66.62;102906.84;5008586;28;20053;-59
2024/01/28 06:22:02;;;;;;;10.57;6.20;;;;;;;2.97;66.78;102906.84;5008398;28;20070;-59
2024/01/28 06:24:30;;;;;;;12.13;6.45;;;;;;;2.95;66.49;102906.16;5007307;28;20073;-59
2024/01/28 06:26:55;;;;;;;15.48;7.15;;;;;;;2.94;66.94;102907.13;4996414;28;20576;-59
2024/01/28 06:29:20;;;;;;;11.63;6.45;;;;;;;2.95;66.79;102903.41;5015788;28;20152;-59
2024/01/28 06:31:46;;;;;;;15.25;6.55;;;;;;;2.96;66.46;102899.63;5020863;28;20029;-59
2024/01/28 06:34:11;;;;;;;10.65;6.43;;;;;;;2.94;66.62;102902.50;5022976;28;20465;-59
2024/01/28 06:36:36;;;;;;;13.40;6.53;;;;;;;2.94;66.32;102899.75;5016899;28;20421;-59
2024/01/28 06:39:02;;;;;;;15.60;6.05;;;;;;;2.97;66.66;102903.22;5004711;28;20034;-59
2024/01/28 06:41:27;;;;;;;13.77;6.13;;;;;;;2.97;66.57;102900.50;5001995;28;20114;-59
2024/01/28 06:43:52;;;;;;;11.98;6.80;;;;;;;2.97;66.79;102890.38;5008981;28;20030;-59
2024/01/28 06:46:19;;;;;;;9.40;6.15;;;;;;;2.93;66.68;102887.06;5010858;28;20046;-59
2024/01/28 06:48:44;;;;;;;11.02;6.35;;;;;;;2.92;66.18;102889.97;5012155;28;20030;-59
2024/01/28 06:51:09;;;;;;;14.57;6.93;;;;;;;2.90;66.31;102890.13;5011240;28;20107;-59
2024/01/28 06:53:36;;;;;;;12.95;6.82;;;;;;;2.89;66.48;102893.03;5011805;28;20036;-59
2024/01/28 06:56:01;;;;;;;11.82;6.63;;;;;;;2.87;65.70;102889.56;5011931;28;20044;-59
2024/01/28 06:58:27;;;;;;;11.45;6.03;;;;;;;2.85;65.99;102886.13;5028627;28;20469;-59
2024/01/28 07:00:53;;;;;;;13.70;6.80;;;;;;;2.83;65.95;102883.53;5012325;28;20037;-59
2024/01/28 07:03:19;;;;;;;11.93;7.07;;;;;;;2.79;66.14;102881.22;5011590;28;20025;-59
2024/01/28 07:05:45;;;;;;;11.48;6.63;;;;;;;2.83;65.96;102886.28;5010786;28;20034;-60
2024/01/28 07:08:10;;;;;;;11.95;6.60;;;;;;;2.82;66.33;102881.78;5011433;28;20039;-60
2024/01/28 07:10:35;;;;;;;10.00;6.30;;;;;;;2.82;66.09;102887.28;5010898;28;20086;-59
2024/01/28 07:13:03;;;;;;;14.55;6.78;;;;;;;2.79;66.15;102889.44;5010146;28;20056;-59
2024/01/28 07:15:29;;;;;;;10.95;6.53;;;;;;;2.75;66.02;102890.78;5008198;28;20042;-59
2024/01/28 07:17:54;;;;;;;12.77;6.40;;;;;;;2.76;65.61;102887.03;4998623;28;20022;-59
2024/01/28 07:20:19;;;;;;;14.40;6.78;;;;;;;2.74;65.92;102897.28;5000167;28;20534;-58
2024/01/28 07:22:45;;;;;;;14.43;6.43;;;;;;;2.72;65.85;102888.34;5011501;28;20037;-58
2024/01/28 07:25:11;;;;;;;12.45;6.25;;;;;;;2.70;66.32;102885.75;5010972;28;20064;-59
2024/01/28 07:27:37;;;;;;;12.32;6.57;;;;;;;2.68;65.56;102882.31;5009708;28;20128;-58
2024/01/28 07:30:02;;;;;;;10.82;6.28;;;;;;;2.68;65.56;102877.69;5011011;28;20448;-59
2024/01/28 07:32:28;;;;;;;12.52;6.45;;;;;;;2.61;66.40;102876.56;5010317;28;20033;-59
2024/01/28 07:34:53;;;;;;;11.52;6.82;;;;;;;2.61;65.67;102883.94;5007611;28;20030;-58
2024/01/28 07:37:18;;;;;;;13.82;7.50;;;;;;;2.63;66.29;102877.28;4993904;28;20109;-58
2024/01/28 07:39:44;;;;;;;11.82;6.35;;;;;;;2.61;66.42;102879.31;5000378;28;20040;-59
2024/01/28 07:42:09;;;;;;;11.95;6.63;;;;;;;2.62;66.33;102870.06;5010049;28;20044;-59
2024/01/28 07:44:34;;;;;;;12.75;7.20;;;;;;;2.60;66.43;102871.25;5010849;28;20022;-58
2024/01/28 07:47:00;;;;;;;10.82;5.85;;;;;;;2.60;66.00;102869.34;5010421;28;20072;-59
2024/01/28 07:49:26;;;;;;;11.73;6.97;;;;;;;2.59;65.94;102870.34;5009706;28;20583;-59
2024/01/28 07:51:51;;;;;;;9.95;6.43;;;;;;;2.62;66.36;102872.78;5008057;28;20030;-59
2024/01/28 07:54:18;;;;;;;10.60;6.53;;;;;;;2.62;65.70;102875.53;5030080;28;20033;-58
2024/01/28 07:56:43;;;;;;;13.02;5.95;;;;;;;2.60;66.16;102863.03;5022866;28;20125;-58
2024/01/28 07:59:09;;;;;;;17.45;7.03;;;;;;;2.61;66.41;102862.00;5009039;28;20129;-59
2024/01/28 08:01:34;;;;;;;13.63;6.57;;;;;;;2.61;66.44;102868.34;5009161;28;20056;-59
2024/01/28 08:04:00;;;;;;;13.57;6.63;;;;;;;2.64;66.31;102865.31;5009774;28;20079;-60
2024/01/28 08:06:27;;;;;;;14.45;7.20;;;;;;;2.61;66.59;102871.06;5010338;28;20033;-59
2024/01/28 08:08:52;;;;;;;11.65;7.95;;;;;;;2.65;66.63;102869.75;5010214;28;20057;-59
2024/01/28 08:11:18;;;;;;;13.23;6.53;;;;;;;2.65;66.74;102867.03;5002540;28;20064;-59
2024/01/28 08:13:44;;;;;;;10.57;6.70;;;;;;;2.68;66.90;102865.84;5011938;28;20038;-59
2024/01/28 08:16:09;;;;;;;12.25;7.15;;;;;;;2.70;66.53;102867.41;4996810;28;20026;-58
2024/01/28 08:18:34;;;;;;;11.13;6.47;;;;;;;2.70;66.49;102861.94;5006680;28;20109;-59
2024/01/28 08:21:00;;;;;;;11.75;6.50;;;;;;;2.76;66.77;102855.00;5005671;28;20079;-58
2024/01/28 08:23:29;;;;;;;13.35;6.47;;;;;;;2.77;67.43;102850.38;5005633;28;20037;-66
2024/01/28 08:25:54;;;;;;;8.10;6.07;;;;;;;2.79;66.51;102849.22;5011625;28;20111;-59
2024/01/28 08:28:21;;;;;;;10.88;6.93;;;;;;;2.83;66.25;102847.88;5010172;28;20045;-58
2024/01/28 08:30:46;;;;;;;11.65;6.65;;;;;;;2.88;66.98;102847.41;5016384;28;20121;-59
2024/01/28 08:33:11;;;;;;;15.80;7.15;;;;;;;2.90;66.52;102850.84;5000163;28;20028;-59
2024/01/28 08:35:37;;;;;;;11.02;6.60;;;;;;;2.91;67.09;102847.13;5010278;28;20477;-59
2024/01/28 08:38:05;;;;;;;12.95;6.65;;;;;;;2.90;66.92;102846.22;5009584;28;20113;-60
2024/01/28 08:40:31;;;;;;;11.35;6.43;;;;;;;2.89;66.88;102839.03;5009994;28;20038;-59
2024/01/28 08:42:56;;;;;;;11.07;6.28;;;;;;;2.95;67.06;102837.56;5010401;28;20018;-58
2024/01/28 08:45:22;;;;;;;13.30;6.13;;;;;;;2.99;67.00;102836.25;5008679;28;20026;-59
2024/01/28 08:47:47;;;;;;;9.75;5.95;;;;;;;2.98;66.62;102837.22;5057146;28;20027;-59
2024/01/28 08:50:13;;;;;;;10.05;6.05;;;;;;;3.04;66.92;102831.13;5018304;28;20090;-58
2024/01/28 08:52:38;;;;;;;13.00;6.65;;;;;;;3.05;66.82;102832.84;5008248;28;20401;-60
2024/01/28 08:55:04;;;;;;;11.05;6.82;;;;;;;3.10;67.16;102829.63;5009772;28;20041;-59
2024/01/28 08:57:31;;;;;;;11.70;6.35;;;;;;;3.08;67.11;102829.81;5009221;28;20102;-59
2024/01/28 08:59:56;;;;;;;11.30;7.22;;;;;;;3.11;66.83;102832.25;5009100;28;20034;-59
2024/01/28 09:02:21;;;;;;;9.35;6.28;;;;;;;3.18;66.67;102830.63;5009085;28;20491;-59
2024/01/28 09:04:46;;;;;;;13.82;6.40;;;;;;;3.24;66.53;102822.75;5008015;28;20034;-59
2024/01/28 09:07:12;;;;;;;14.05;6.88;;;;;;;3.25;67.09;102821.75;5008584;28;20841;-59
2024/01/28 09:09:37;;;;;;;9.20;6.22;;;;;;;3.27;67.12;102828.81;5045348;28;20034;-60
2024/01/28 09:12:04;;;;;;;10.45;6.53;;;;;;;3.29;66.52;102824.00;5007282;28;20453;-59
2024/01/28 09:14:29;;;;;;;11.60;6.03;;;;;;;3.32;66.54;102823.69;5009529;28;20125;-59
2024/01/28 09:16:55;;;;;;;8.52;6.20;;;;;;;3.32;66.50;102820.09;5009442;28;20113;-59
2024/01/28 09:19:20;;;;;;;11.75;6.65;;;;;;;3.35;65.90;102814.28;5007853;28;20530;-59
2024/01/28 09:21:46;;;;;;;10.63;7.25;;;;;;;3.37;66.22;102813.09;5008602;28;20040;-58
2024/01/28 09:24:11;;;;;;;12.73;7.75;;;;;;;3.39;65.92;102810.22;5012692;28;20014;-59
2024/01/28 09:26:36;;;;;;;14.15;8.65;;;;;;;3.44;66.21;102810.59;5007489;28;20045;-59
2024/01/28 09:29:02;;;;;;;13.25;8.07;;;;;;;3.43;65.98;102807.00;5031970;28;20708;-59
2024/01/28 09:31:28;;;;;;;9.88;7.32;;;;;;;3.48;65.98;102809.25;5018349;28;20037;-59
2024/01/28 09:33:54;;;;;;;10.05;6.57;;;;;;;3.51;65.86;102810.84;5016526;28;20081;-58
2024/01/28 09:36:19;;;;;;;11.27;6.43;;;;;;;3.58;66.12;102812.78;5008268;28;20034;-58
2024/01/28 09:38:44;;;;;;;12.05;6.43;;;;;;;3.62;65.44;102800.47;5008369;28;20033;-59
2024/01/28 09:41:23;;;;;;;12.93;6.63;;;;;;;3.69;64.95;102801.56;5009927;28;20036;-58
2024/01/28 09:43:48;;;;;;;10.77;6.22;;;;;;;3.74;64.85;102797.47;4989865;28;20439;-58
2024/01/28 09:46:16;;;;;;;14.00;7.65;;;;;;;3.84;65.52;102798.19;5005742;28;20141;-59
2024/01/28 09:48:44;;;;;;;14.43;8.07;;;;;;;3.94;64.79;102793.47;5007350;28;20030;-59
2024/01/28 09:51:10;;;;;;;12.52;6.72;;;;;;;4.09;64.49;102804.75;5009126;28;20170;-59
2024/01/28 09:53:36;;;;;;;18.70;12.10;;;;;;;4.26;64.06;102791.94;5008949;28;20125;-59
2024/01/28 09:56:05;;;;;;;13.95;8.98;;;;;;;4.46;64.07;102801.66;5004240;28;20487;-58
2024/01/28 09:58:31;;;;;;;9.88;6.35;;;;;;;4.64;62.92;102788.69;5008821;28;20080;-59
2024/01/28 10:00:56;;;;;;;11.13;6.07;;;;;;;4.84;62.87;102789.25;5007554;28;20477;-60
2024/01/28 10:03:22;;;;;;;10.10;6.05;;;;;;;5.04;62.81;102780.69;5008118;28;20440;-60
2024/01/28 10:05:47;;;;;;;13.65;8.82;;;;;;;5.20;61.53;102785.34;5008032;28;20175;-60
2024/01/28 10:08:14;;;;;;;9.90;7.18;;;;;;;5.39;60.06;102785.03;5007030;28;20045;-59
2024/01/28 10:10:40;;;;;;;13.30;7.63;;;;;;;5.56;60.32;102783.13;4988830;28;20033;-60
2024/01/28 10:13:06;;;;;;;15.35;9.20;;;;;;;5.72;59.98;102776.75;4998871;28;20051;-60
2024/01/28 10:15:31;;;;;;;17.13;7.53;;;;;;;5.86;59.28;102774.16;5007530;28;20516;-59
2024/01/28 10:17:56;;;;;;;13.90;5.95;;;;;;;6.00;58.98;102769.84;5008237;28;20029;-59
2024/01/28 10:20:24;;;;;;;9.43;6.20;;;;;;;6.12;59.10;102778.59;5007949;28;20151;-59
2024/01/28 10:22:51;;;;;;;12.82;6.20;;;;;;;6.22;58.14;102771.00;5007398;28;20033;-60
2024/01/28 10:25:17;;;;;;;8.02;5.75;;;;;;;6.34;58.38;102766.81;5007895;28;20064;-60
2024/01/28 10:27:43;;;;;;;9.98;5.60;;;;;;;6.42;57.43;102763.16;5005813;28;21289;-59
2024/01/28 10:30:10;;;;;;;13.02;6.18;;;;;;;6.49;57.21;102768.81;5018302;28;20018;-60
2024/01/28 10:32:35;;;;;;;9.63;5.65;;;;;;;6.59;56.49;102758.41;5007292;28;20030;-60
2024/01/28 10:35:01;;;;;;;9.63;5.90;;;;;;;6.68;56.41;102767.50;5008394;28;20049;-60
2024/01/28 10:37:32;;;;;;;10.88;5.32;;;;;;;6.74;55.60;102767.66;5007649;28;20018;-60
2024/01/28 10:40:08;;;;;;;9.20;5.10;;;;;;;6.81;55.89;102767.78;5008310;28;20043;-59
2024/01/28 10:42:40;;;;;;;9.25;4.95;;;;;;;6.85;55.62;102756.19;5004518;28;20477;-60
2024/01/28 10:45:09;;;;;;;7.30;5.10;;;;;;;6.93;55.03;102757.19;5003083;28;20022;-60
2024/01/28 10:47:36;;;;;;;8.18;4.88;;;;;;;6.97;54.42;102753.88;4998929;28;20038;-59
2024/01/28 10:50:07;;;;;;;6.28;4.70;;;;;;;7.03;54.22;102755.03;5007357;28;20552;-59
2024/01/28 10:52:33;;;;;;;7.50;4.63;;;;;;;7.10;55.35;102756.88;5010987;28;20034;-59
2024/01/28 10:55:00;;;;;;;9.75;5.00;;;;;;;7.19;56.37;102748.53;5007738;28;20045;-59
2024/01/28 10:57:25;;;;;;;8.50;5.10;;;;;;;7.32;54.41;102748.78;5006985;28;20429;-59
2024/01/28 10:59:53;;;;;;;8.93;5.45;;;;;;;7.36;54.37;102739.09;5007821;28;20076;-59
2024/01/28 11:02:20;;;;;;;8.25;4.82;;;;;;;7.41;54.38;102736.63;5007381;28;20062;-60
2024/01/28 11:04:46;;;;;;;10.68;5.90;;;;;;;7.42;54.59;102735.56;5007511;28;20032;-59
2024/01/28 11:07:12;;;;;;;8.90;5.10;;;;;;;7.44;54.54;102725.19;5007864;28;20038;-59
2024/01/28 11:09:37;;;;;;;9.55;4.93;;;;;;;7.45;54.33;102720.53;5020680;28;20044;-59
2024/01/28 11:12:03;;;;;;;9.13;5.60;;;;;;;7.44;54.32;102719.69;5000215;28;20034;-59
2024/01/28 11:14:28;;;;;;;7.50;4.80;;;;;;;7.40;54.65;102712.81;4986834;28;20049;-59
2024/01/28 11:16:53;;;;;;;8.50;5.97;;;;;;;7.44;54.83;102708.63;5005527;28;20045;-59